createdAt,value
2023-05-16T00:01:52.857Z,12.30
2023-05-16T00:04:21.487Z,16.80
2023-05-16T00:06:49.807Z,15.83
2023-05-16T00:09:19.631Z,18.33
2023-05-16T00:11:48.441Z,16.03
2023-05-16T00:14:16.937Z,16.50
2023-05-16T00:16:45.692Z,13.63
2023-05-16T00:19:13.903Z,12.90
2023-05-16T00:21:42.256Z,18.80
2023-05-16T00:24:10.590Z,13.80
2023-05-16T00:26:40.159Z,15.27
2023-05-16T00:29:08.394Z,15.80
2023-05-16T00:31:36.997Z,15.00
2023-05-16T00:34:05.589Z,13.57
2023-05-16T00:36:35.858Z,16.63
2023-05-16T00:39:04.376Z,16.30
2023-05-16T00:41:32.947Z,16.80
2023-05-16T00:44:02.623Z,14.00
2023-05-16T00:46:30.918Z,15.27
2023-05-16T00:48:59.411Z,14.90
2023-05-16T00:51:27.725Z,16.17
2023-05-16T00:53:58.139Z,13.93
2023-05-16T00:56:26.403Z,13.30
2023-05-16T00:58:55.352Z,13.03
2023-05-16T01:01:27.557Z,13.13
2023-05-16T01:03:56.246Z,14.53
2023-05-16T01:06:24.489Z,15.70
2023-05-16T01:08:52.648Z,15.70
2023-05-16T01:11:26.914Z,15.17
2023-05-16T01:14:07.103Z,14.87
2023-05-16T01:16:41.427Z,22.17
2023-05-16T01:19:18.923Z,14.90
2023-05-16T01:21:51.293Z,14.90
2023-05-16T01:24:28.567Z,18.40
2023-05-16T01:27:00.179Z,18.93
2023-05-16T01:29:28.750Z,15.20
2023-05-16T01:31:58.404Z,15.97
2023-05-16T01:34:27.174Z,18.87
2023-05-16T01:37:06.808Z,17.83
2023-05-16T01:39:41.591Z,16.60
2023-05-16T01:42:15.447Z,17.80
2023-05-16T01:44:49.130Z,18.60
2023-05-16T01:47:19.117Z,17.73
2023-05-16T01:49:58.193Z,20.10
2023-05-16T01:52:31.367Z,18.83
2023-05-16T01:55:00.515Z,20.00
2023-05-16T01:57:31.160Z,17.60
2023-05-16T01:59:59.836Z,19.20
2023-05-16T02:02:28.355Z,23.63
2023-05-16T02:04:56.523Z,19.60
2023-05-16T02:07:25.840Z,16.60
2023-05-16T02:09:54.039Z,20.63
2023-05-16T02:12:22.290Z,21.47
2023-05-16T02:14:51.826Z,22.23
2023-05-16T02:17:20.262Z,19.40
2023-05-16T02:19:48.409Z,17.37
2023-05-16T02:22:16.728Z,20.10
2023-05-16T02:24:44.925Z,17.70
2023-05-16T02:27:13.524Z,15.63
2023-05-16T02:29:41.684Z,15.73
2023-05-16T02:32:11.272Z,15.93
2023-05-16T02:34:40.897Z,20.53
2023-05-16T02:37:10.224Z,18.80
2023-05-16T02:39:40.055Z,19.63
2023-05-16T02:42:08.741Z,19.23
2023-05-16T02:44:36.910Z,20.70
2023-05-16T02:47:05.606Z,20.93
2023-05-16T02:49:35.189Z,18.77
2023-05-16T02:52:03.293Z,16.57
2023-05-16T02:54:31.503Z,21.77
2023-05-16T02:56:59.709Z,18.03
2023-05-16T02:59:27.962Z,18.23
2023-05-16T03:01:56.209Z,24.03
2023-05-16T03:04:24.997Z,22.70
2023-05-16T03:06:54.517Z,22.87
2023-05-16T03:09:22.969Z,22.03
2023-05-16T03:11:51.550Z,22.43
2023-05-16T03:14:21.214Z,21.73
2023-05-16T03:16:49.515Z,22.93
2023-05-16T03:19:17.875Z,23.57
2023-05-16T03:21:46.224Z,23.70
2023-05-16T03:24:16.407Z,22.80
2023-05-16T03:26:45.521Z,24.17
2023-05-16T03:29:13.772Z,27.30
2023-05-16T03:31:42.407Z,24.33
2023-05-16T03:34:10.908Z,26.10
2023-05-16T03:36:40.774Z,26.90
2023-05-16T03:39:09.566Z,26.17
2023-05-16T03:41:39.092Z,27.97
2023-05-16T03:44:08.172Z,25.33
2023-05-16T03:46:36.967Z,25.13
2023-05-16T03:49:05.145Z,27.23
2023-05-16T03:51:33.354Z,26.63
2023-05-16T03:54:01.771Z,27.10
2023-05-16T03:56:29.953Z,25.63
2023-05-16T03:58:59.745Z,28.20
2023-05-16T04:01:28.143Z,25.03
2023-05-16T04:03:56.578Z,25.70
2023-05-16T04:06:24.752Z,28.17
2023-05-16T04:08:52.857Z,27.30
2023-05-16T04:11:21.464Z,27.60
2023-05-16T04:13:49.794Z,29.80
2023-05-16T04:16:19.424Z,27.77
2023-05-16T04:18:47.724Z,27.10
2023-05-16T04:21:15.920Z,28.30
2023-05-16T04:23:44.121Z,26.77
2023-05-16T04:26:13.116Z,30.70
2023-05-16T04:28:41.277Z,32.70
2023-05-16T04:31:09.590Z,28.70
2023-05-16T04:33:39.470Z,31.73
2023-05-16T04:36:08.099Z,33.10
2023-05-16T04:38:36.838Z,36.60
2023-05-16T04:41:05.175Z,34.27
2023-05-16T04:43:33.485Z,29.60
2023-05-16T04:46:01.684Z,31.33
2023-05-16T04:48:29.966Z,34.63
2023-05-16T04:51:00.000Z,35.20
2023-05-16T04:53:28.887Z,36.10
2023-05-16T04:55:57.074Z,33.47
2023-05-16T04:58:25.533Z,32.40
2023-05-16T05:00:54.010Z,33.93
2023-05-16T05:03:22.231Z,30.80
2023-05-16T05:05:50.554Z,39.80
2023-05-16T05:08:20.193Z,38.03
2023-05-16T05:10:48.408Z,34.17
2023-05-16T05:13:16.612Z,36.90
2023-05-16T05:15:44.814Z,36.37
2023-05-16T05:18:12.931Z,36.43
2023-05-16T05:20:41.361Z,46.20
2023-05-16T05:23:09.805Z,39.57
2023-05-16T05:25:41.137Z,39.80
2023-05-16T05:28:09.513Z,44.23
2023-05-16T05:30:37.990Z,40.60
2023-05-16T05:33:06.289Z,37.53
2023-05-16T05:35:34.804Z,33.73
2023-05-16T05:38:03.258Z,36.97
2023-05-16T05:40:31.439Z,35.30
2023-05-16T05:43:01.200Z,41.67
2023-05-16T05:45:29.906Z,39.93
2023-05-16T05:47:58.316Z,40.20
2023-05-16T05:50:26.542Z,34.60
2023-05-16T05:52:55.109Z,33.73
2023-05-16T05:55:23.365Z,35.00
2023-05-16T05:57:51.582Z,47.00
2023-05-16T06:00:21.603Z,35.83
2023-05-16T06:02:50.044Z,37.63
2023-05-16T06:05:18.292Z,35.90
2023-05-16T06:07:46.538Z,37.20
2023-05-16T06:10:14.796Z,37.90
2023-05-16T06:12:43.001Z,39.27
2023-05-16T06:15:12.201Z,36.93
2023-05-16T06:17:42.368Z,52.03
2023-05-16T06:20:11.296Z,41.60
2023-05-16T06:22:39.607Z,40.57
2023-05-16T06:25:08.464Z,40.83
2023-05-16T06:27:36.749Z,36.57
2023-05-16T06:30:05.501Z,42.63
2023-05-16T06:32:33.740Z,43.93
2023-05-16T06:35:03.281Z,37.73
2023-05-16T06:37:31.472Z,33.40
2023-05-16T06:40:00.228Z,36.13
2023-05-16T06:42:28.471Z,40.57
2023-05-16T06:44:56.648Z,35.37
2023-05-16T06:47:24.831Z,35.90
2023-05-16T06:49:53.157Z,38.00
2023-05-16T06:52:22.940Z,34.93
2023-05-16T06:54:51.222Z,37.47
2023-05-16T06:57:19.367Z,32.70
2023-05-16T06:59:47.729Z,34.73
2023-05-16T07:02:16.152Z,38.30
2023-05-16T07:04:44.465Z,36.53
2023-05-16T07:07:13.643Z,38.60
2023-05-16T07:09:43.352Z,36.10
2023-05-16T07:12:11.678Z,39.67
2023-05-16T07:14:40.628Z,35.33
2023-05-16T07:17:09.026Z,30.20
2023-05-16T07:19:37.260Z,44.83
2023-05-16T07:22:06.000Z,30.97
2023-05-16T07:24:34.428Z,34.67
2023-05-16T07:27:04.031Z,32.97
2023-05-16T07:29:32.219Z,33.07
2023-05-16T07:32:00.846Z,34.33
2023-05-16T07:34:29.078Z,29.37
2023-05-16T07:36:57.266Z,34.67
2023-05-16T07:39:25.779Z,33.90
2023-05-16T07:41:53.969Z,30.33
2023-05-16T07:44:23.668Z,32.70
2023-05-16T07:46:51.858Z,37.37
2023-05-16T07:49:20.029Z,32.80
2023-05-16T07:51:48.238Z,31.57
2023-05-16T07:54:16.441Z,37.67
2023-05-16T07:56:44.770Z,34.63
2023-05-16T07:59:13.028Z,40.43
2023-05-16T08:01:42.665Z,33.70
2023-05-16T08:04:11.150Z,34.40
2023-05-16T08:06:39.350Z,38.13
2023-05-16T08:09:07.617Z,38.93
2023-05-16T08:11:36.298Z,38.37
2023-05-16T08:14:04.738Z,37.70
2023-05-16T08:16:33.352Z,35.40
2023-05-16T08:19:03.071Z,35.67
2023-05-16T08:21:31.975Z,40.60
2023-05-16T08:24:00.239Z,31.37
2023-05-16T08:26:28.482Z,29.87
2023-05-16T08:28:56.669Z,35.53
2023-05-16T08:31:24.947Z,41.03
2023-05-16T08:33:53.269Z,34.33
2023-05-16T08:36:22.868Z,33.10
2023-05-16T08:38:53.645Z,35.93
2023-05-16T08:41:21.908Z,34.87
2023-05-16T08:43:50.235Z,44.37
2023-05-16T08:46:23.143Z,34.73
2023-05-16T08:48:54.372Z,36.30
2023-05-16T08:51:27.909Z,31.90
2023-05-16T08:54:01.559Z,32.13
2023-05-16T08:56:30.202Z,31.53
2023-05-16T08:58:59.604Z,30.27
2023-05-16T09:01:28.051Z,28.93
2023-05-16T09:03:57.576Z,26.20
2023-05-16T09:06:27.481Z,30.13
2023-05-16T09:08:55.852Z,26.97
2023-05-16T09:11:24.156Z,31.03
2023-05-16T09:13:52.362Z,28.93
2023-05-16T09:16:21.646Z,29.43
2023-05-16T09:18:57.119Z,25.97
2023-05-16T09:21:29.609Z,24.23
2023-05-16T09:23:58.071Z,20.67
2023-05-16T09:26:26.730Z,23.30
2023-05-16T09:28:56.657Z,20.37
2023-05-16T09:31:27.203Z,17.67
2023-05-16T09:33:57.202Z,17.50
2023-05-16T09:36:27.555Z,16.53
2023-05-16T09:38:55.703Z,23.80
2023-05-16T09:41:23.982Z,14.93
2023-05-16T09:43:52.097Z,13.13
2023-05-16T09:46:20.842Z,16.50
2023-05-16T09:48:49.570Z,11.33
2023-05-16T09:51:17.736Z,11.63
2023-05-16T09:53:47.785Z,12.37
2023-05-16T09:56:17.857Z,13.33
2023-05-16T09:58:47.412Z,13.70
2023-05-16T10:01:15.566Z,10.80
2023-05-16T10:03:45.679Z,10.43
2023-05-16T10:06:16.832Z,7.23
2023-05-16T10:08:47.681Z,10.77
2023-05-16T10:11:17.403Z,11.07
2023-05-16T10:13:52.985Z,17.27
2023-05-16T10:16:24.497Z,13.27
2023-05-16T10:18:53.698Z,10.83
2023-05-16T10:21:24.349Z,3.67
2023-05-16T10:23:57.348Z,6.97
2023-05-16T10:26:26.756Z,4.63
2023-05-16T10:28:55.673Z,3.87
2023-05-16T10:31:25.179Z,3.70
2023-05-16T10:33:54.064Z,4.10
2023-05-16T10:36:22.580Z,3.27
2023-05-16T10:38:51.903Z,3.13
2023-05-16T10:41:22.693Z,2.77
2023-05-16T10:43:57.927Z,3.00
2023-05-16T10:46:29.196Z,4.03
2023-05-16T10:48:58.765Z,3.30
2023-05-16T10:51:38.957Z,3.27
2023-05-16T10:54:09.726Z,3.80
2023-05-16T10:56:39.704Z,2.27
2023-05-16T10:59:25.404Z,7.10
2023-05-16T11:01:57.668Z,4.27
2023-05-16T11:04:46.008Z,5.70
2023-05-16T11:07:14.885Z,2.60
2023-05-16T11:09:46.520Z,6.70
2023-05-16T11:12:16.481Z,2.30
2023-05-16T11:14:47.755Z,4.40
2023-05-16T11:17:21.647Z,1.90
2023-05-16T11:19:51.421Z,2.73
2023-05-16T11:22:27.268Z,3.37
2023-05-16T11:25:00.649Z,4.83
2023-05-16T11:27:32.020Z,2.40
2023-05-16T11:30:04.041Z,9.73
2023-05-16T11:32:37.257Z,3.53
2023-05-16T11:35:08.017Z,2.77
2023-05-16T11:37:37.924Z,2.93
2023-05-16T11:40:08.536Z,3.50
2023-05-16T11:42:39.476Z,3.10
2023-05-16T11:45:08.801Z,3.13
2023-05-16T11:47:38.926Z,2.93
2023-05-16T11:50:10.100Z,3.70
2023-05-16T11:52:39.380Z,4.37
2023-05-16T11:55:11.052Z,2.20
2023-05-16T11:57:42.045Z,4.70
2023-05-16T12:00:17.004Z,1.90
2023-05-16T12:02:46.138Z,3.57
2023-05-16T12:05:15.339Z,3.33
2023-05-16T12:07:45.511Z,1.30
2023-05-16T12:10:15.859Z,1.37
2023-05-16T12:12:47.309Z,1.73
2023-05-16T12:15:16.376Z,1.97
2023-05-16T12:17:45.039Z,1.67
2023-05-16T12:20:14.502Z,2.60
2023-05-16T12:22:43.115Z,5.43
2023-05-16T12:25:28.465Z,3.37
2023-05-16T12:27:59.784Z,2.70
2023-05-16T12:30:29.501Z,1.70
2023-05-16T12:32:58.874Z,2.37
2023-05-16T12:35:28.254Z,3.03
2023-05-16T12:37:56.728Z,2.00
2023-05-16T12:40:25.210Z,2.63
2023-05-16T12:42:54.532Z,2.17
2023-05-16T12:45:25.358Z,3.53
2023-05-16T12:47:53.905Z,3.73
2023-05-16T12:50:22.995Z,2.00
2023-05-16T12:52:52.658Z,3.03
2023-05-16T12:55:21.704Z,1.60
2023-05-16T12:57:51.071Z,2.70
2023-05-16T13:00:20.970Z,3.43
2023-05-16T13:02:50.788Z,3.10
2023-05-16T13:05:20.568Z,2.83
2023-05-16T13:07:48.889Z,3.60
2023-05-16T13:10:17.270Z,2.00
2023-05-16T13:12:45.426Z,2.33
2023-05-16T13:15:14.252Z,1.53
2023-05-16T13:17:44.024Z,4.00
2023-05-16T13:20:15.354Z,2.53
2023-05-16T13:22:46.481Z,2.37
2023-05-16T13:25:14.835Z,1.80
2023-05-16T13:27:43.081Z,2.20
2023-05-16T13:30:11.823Z,2.20
2023-05-16T13:32:40.209Z,1.50
2023-05-16T13:35:09.792Z,2.20
2023-05-16T13:37:39.710Z,3.70
2023-05-16T13:40:10.480Z,3.03
2023-05-16T13:42:39.278Z,5.90
2023-05-16T13:45:09.045Z,1.53
2023-05-16T13:47:37.951Z,3.27
2023-05-16T13:50:10.151Z,4.33
2023-05-16T13:52:40.456Z,2.60
2023-05-16T13:55:09.792Z,2.47
2023-05-16T13:57:38.035Z,2.80
2023-05-16T14:02:45.117Z,2.20
2023-05-16T14:05:13.579Z,2.10
2023-05-16T14:07:45.376Z,3.47
2023-05-16T14:10:15.024Z,4.03
2023-05-16T14:12:43.512Z,4.77
2023-05-16T14:15:12.252Z,6.60
2023-05-16T14:17:40.534Z,6.53
2023-05-16T14:20:10.783Z,3.40
2023-05-16T14:22:39.681Z,4.20
2023-05-16T14:25:10.145Z,6.00
2023-05-16T14:27:38.358Z,5.30
2023-05-16T14:30:08.150Z,9.60
2023-05-16T14:32:36.478Z,7.50
2023-05-16T14:35:06.607Z,6.23
2023-05-16T14:37:34.754Z,11.60
2023-05-16T14:40:03.215Z,4.63
2023-05-16T14:42:32.796Z,6.53
2023-05-16T14:45:01.581Z,4.37
2023-05-16T14:47:31.220Z,8.20
2023-05-16T14:50:00.872Z,6.97
2023-05-16T14:52:29.132Z,7.17
2023-05-16T14:54:57.318Z,5.93
2023-05-16T14:57:25.564Z,7.60
2023-05-16T14:59:55.130Z,8.20
2023-05-16T15:02:23.620Z,5.03
2023-05-16T15:04:52.157Z,12.60
2023-05-16T15:07:20.658Z,6.83
2023-05-16T15:09:49.060Z,5.20
2023-05-16T15:12:17.373Z,11.07
2023-05-16T15:14:45.645Z,8.37
2023-05-16T15:17:15.844Z,5.40
2023-05-16T15:19:44.053Z,7.57
2023-05-16T15:22:12.499Z,6.73
2023-05-16T15:24:40.881Z,5.63
2023-05-16T15:27:09.194Z,9.30
2023-05-16T15:29:37.686Z,5.43
2023-05-16T15:32:07.020Z,5.10
2023-05-16T15:34:37.009Z,5.20
2023-05-16T15:37:05.428Z,7.60
2023-05-16T15:39:33.640Z,5.10
2023-05-16T15:42:10.730Z,10.53
2023-05-16T15:44:40.162Z,5.37
2023-05-16T15:47:08.960Z,10.87
2023-05-16T15:49:38.804Z,8.30
2023-05-16T15:52:07.209Z,12.93
2023-05-16T15:54:35.639Z,7.03
2023-05-16T15:57:04.173Z,8.40
2023-05-16T15:59:32.680Z,3.97
2023-05-16T16:02:04.251Z,6.27
2023-05-16T16:04:33.247Z,7.60
2023-05-16T16:07:02.841Z,7.93
2023-05-16T16:09:31.070Z,5.70
2023-05-16T16:11:59.180Z,9.43
2023-05-16T16:14:27.381Z,5.47
2023-05-16T16:16:55.800Z,13.33
2023-05-16T16:19:24.287Z,10.57
2023-05-16T16:21:52.698Z,7.10
2023-05-16T16:24:22.677Z,5.23
2023-05-16T16:26:50.938Z,5.03
2023-05-16T16:29:19.075Z,5.63
2023-05-16T16:31:47.593Z,5.60
2023-05-16T16:34:16.096Z,4.50
2023-05-16T16:36:44.388Z,9.57
2023-05-16T16:39:12.703Z,5.33
2023-05-16T16:41:42.393Z,8.40
2023-05-16T16:44:10.630Z,10.33
2023-05-16T16:46:39.355Z,3.90
2023-05-16T16:49:07.944Z,4.70
2023-05-16T16:51:36.986Z,11.67
2023-05-16T16:54:05.314Z,8.13
2023-05-16T16:56:34.222Z,5.23
2023-05-16T16:59:04.215Z,7.77
2023-05-16T17:01:32.723Z,8.83
2023-05-16T17:04:01.754Z,5.67
2023-05-16T17:06:30.352Z,11.67
2023-05-16T17:09:02.400Z,15.83
2023-05-16T17:11:31.480Z,7.87
2023-05-16T17:13:59.999Z,8.33
2023-05-16T17:16:29.894Z,8.77
2023-05-16T17:18:58.235Z,8.90
2023-05-16T17:21:26.941Z,9.10
2023-05-16T17:23:55.196Z,5.10
2023-05-16T17:26:23.335Z,7.10
2023-05-16T17:28:51.927Z,9.57
2023-05-16T17:31:20.340Z,5.03
2023-05-16T17:33:49.920Z,6.03
2023-05-16T17:36:18.492Z,11.97
2023-05-16T17:38:46.649Z,8.70
2023-05-16T17:41:15.137Z,5.50
2023-05-16T17:43:45.415Z,6.43
2023-05-16T17:46:14.556Z,11.93
2023-05-16T17:48:42.696Z,4.70
2023-05-16T17:51:12.314Z,8.10
2023-05-16T17:53:40.527Z,8.47
2023-05-16T17:56:09.311Z,4.40
2023-05-16T17:58:38.154Z,7.30
2023-05-16T18:01:08.398Z,6.87
2023-05-16T18:03:38.714Z,7.23
2023-05-16T18:06:07.399Z,8.70
2023-05-16T18:08:37.382Z,12.90
2023-05-16T18:11:05.664Z,9.70
2023-05-16T18:13:33.974Z,4.77
2023-05-16T18:16:02.344Z,8.20
2023-05-16T18:18:30.528Z,9.20
2023-05-16T18:20:59.599Z,7.30
2023-05-16T18:23:27.992Z,4.87
2023-05-16T18:25:57.588Z,9.87
2023-05-16T18:28:26.021Z,4.43
2023-05-16T18:30:54.260Z,6.03
2023-05-16T18:33:22.757Z,6.30
2023-05-16T18:35:51.120Z,6.17
2023-05-16T18:38:31.351Z,6.77
2023-05-16T18:41:01.976Z,5.37
2023-05-16T18:43:30.676Z,7.43
2023-05-16T18:45:59.048Z,9.53
2023-05-16T18:48:27.425Z,5.90
2023-05-16T18:50:56.422Z,7.23
2023-05-16T18:53:24.825Z,16.47
2023-05-16T18:55:53.165Z,5.80
2023-05-16T18:58:23.028Z,5.70
2023-05-16T19:00:51.900Z,4.93
2023-05-16T19:03:20.371Z,6.83
2023-05-16T19:05:48.892Z,5.93
2023-05-16T19:08:17.516Z,7.73
2023-05-16T19:10:45.706Z,9.50
2023-05-16T19:13:13.994Z,7.10
2023-05-16T19:15:43.614Z,15.03
2023-05-16T19:18:12.047Z,7.90
2023-05-16T19:20:40.726Z,7.43
2023-05-16T19:23:08.994Z,6.33
2023-05-16T19:25:37.425Z,4.73
2023-05-16T19:28:06.013Z,4.30
2023-05-16T19:30:34.275Z,7.73
2023-05-16T19:33:04.301Z,5.90
2023-05-16T19:35:32.938Z,10.50
2023-05-16T19:38:01.789Z,10.77
2023-05-16T19:40:30.222Z,18.77
2023-05-16T19:42:58.943Z,11.57
2023-05-16T19:45:27.303Z,10.40
2023-05-16T19:47:55.847Z,9.23
2023-05-16T19:50:25.837Z,10.13
2023-05-16T19:52:54.084Z,9.53
2023-05-16T19:55:22.679Z,11.60
2023-05-16T19:57:52.633Z,9.43
2023-05-16T20:00:21.397Z,8.03
2023-05-16T20:02:49.887Z,8.23
2023-05-16T20:05:22.342Z,8.37
2023-05-16T20:07:53.361Z,4.20
2023-05-16T20:10:22.129Z,8.33
2023-05-16T20:12:50.706Z,9.47
2023-05-16T20:15:19.333Z,8.00
2023-05-16T20:17:47.697Z,6.90
2023-05-16T20:20:16.487Z,10.43
2023-05-16T20:22:44.831Z,8.30
2023-05-16T20:25:14.442Z,9.63
2023-05-16T20:27:42.591Z,33.20
2023-05-16T20:30:11.476Z,61.80
2023-05-16T20:32:39.834Z,35.90
2023-05-16T20:35:10.183Z,20.77
2023-05-16T20:37:38.893Z,12.07
2023-05-16T20:40:08.547Z,10.20
2023-05-16T20:42:38.477Z,5.67
2023-05-16T20:45:07.480Z,11.33
2023-05-16T20:47:35.728Z,4.67
2023-05-16T20:50:04.037Z,9.63
2023-05-16T20:52:32.238Z,7.30
2023-05-16T20:55:01.452Z,6.50
2023-05-16T20:57:29.895Z,8.37
2023-05-16T20:59:59.421Z,9.30
2023-05-16T21:02:27.756Z,6.73
2023-05-16T21:04:57.431Z,11.17
2023-05-16T21:07:27.503Z,9.60
2023-05-16T21:09:55.671Z,9.20
2023-05-16T21:12:24.305Z,10.73
2023-05-16T21:14:52.803Z,10.03
2023-05-16T21:17:22.413Z,8.97
2023-05-16T21:19:51.263Z,8.20
2023-05-16T21:22:19.798Z,8.63
2023-05-16T21:24:48.132Z,8.10
2023-05-16T21:27:17.719Z,5.43
2023-05-16T21:29:46.036Z,7.93
2023-05-16T21:32:16.244Z,7.17
2023-05-16T21:34:46.024Z,4.63
2023-05-16T21:37:15.241Z,5.23
2023-05-16T21:39:43.494Z,5.93
2023-05-16T21:42:11.809Z,5.30
2023-05-16T21:44:40.026Z,6.43
2023-05-16T21:47:08.215Z,5.13
2023-05-16T21:49:36.631Z,6.30
2023-05-16T21:52:07.778Z,5.77
2023-05-16T21:54:36.157Z,5.37
2023-05-16T21:57:04.691Z,6.77
2023-05-16T21:59:32.902Z,5.70
2023-05-16T22:02:01.102Z,5.20
2023-05-16T22:04:29.414Z,6.40
2023-05-16T22:06:58.199Z,2.87
2023-05-16T22:09:28.176Z,8.63
2023-05-16T22:11:57.014Z,5.03
2023-05-16T22:14:25.351Z,7.83
2023-05-16T22:16:53.604Z,7.10
2023-05-16T22:19:21.972Z,7.63
2023-05-16T22:21:50.253Z,2.37
2023-05-16T22:24:18.572Z,9.27
2023-05-16T22:26:48.441Z,4.23
2023-05-16T22:29:16.850Z,4.30
2023-05-16T22:31:45.280Z,5.80
2023-05-16T22:34:13.667Z,14.33
2023-05-16T22:36:42.226Z,3.60
2023-05-16T22:39:10.850Z,9.07
2023-05-16T22:41:39.174Z,10.53
2023-05-16T22:44:08.799Z,4.43
2023-05-16T22:46:37.244Z,4.70
2023-05-16T22:49:05.721Z,4.90
2023-05-16T22:51:34.323Z,5.70
2023-05-16T22:54:02.495Z,6.80
2023-05-16T22:56:30.620Z,6.10
2023-05-16T22:58:58.811Z,4.73
2023-05-16T23:01:28.798Z,3.70
2023-05-16T23:03:57.111Z,4.50
2023-05-16T23:06:25.499Z,5.07
2023-05-16T23:08:53.655Z,5.30
2023-05-16T23:11:22.567Z,4.17
2023-05-16T23:13:50.865Z,6.30
2023-05-16T23:16:19.148Z,5.10
2023-05-16T23:18:48.850Z,5.17
2023-05-16T23:21:17.075Z,3.70
2023-05-16T23:23:45.404Z,9.47
2023-05-16T23:26:13.709Z,10.70
2023-05-16T23:28:42.038Z,6.53
2023-05-16T23:31:10.339Z,3.50
2023-05-16T23:33:38.644Z,9.80
2023-05-16T23:36:09.034Z,3.60
2023-05-16T23:38:37.322Z,5.10
2023-05-16T23:41:05.496Z,4.50
2023-05-16T23:43:33.724Z,4.13
2023-05-16T23:46:02.047Z,6.23
2023-05-16T23:48:30.454Z,3.80
2023-05-16T23:50:58.894Z,2.27
2023-05-16T23:53:31.072Z,4.40
2023-05-16T23:55:59.326Z,4.00
2023-05-16T23:58:27.936Z,5.40
